createdAt,value
2022-07-31T00:00:15.301Z,15.90
2022-07-31T00:02:42.401Z,15.80
2022-07-31T00:05:09.776Z,15.80
2022-07-31T00:07:36.961Z,15.80
2022-07-31T00:10:06.007Z,15.80
2022-07-31T00:12:34.924Z,15.80
2022-07-31T00:15:07.295Z,15.80
2022-07-31T00:17:34.449Z,15.80
2022-07-31T00:20:02.087Z,15.80
2022-07-31T00:22:29.117Z,15.90
2022-07-31T00:24:56.557Z,15.90
2022-07-31T00:27:24.041Z,15.90
2022-07-31T00:29:51.276Z,15.80
2022-07-31T00:32:18.220Z,15.80
2022-07-31T00:34:45.171Z,15.80
2022-07-31T00:37:12.187Z,15.80
2022-07-31T00:39:39.135Z,15.80
2022-07-31T00:42:06.400Z,15.70
2022-07-31T00:44:33.598Z,15.60
2022-07-31T00:47:01.718Z,15.60
2022-07-31T00:49:37.699Z,15.50
2022-07-31T00:52:06.414Z,15.60
2022-07-31T00:54:34.014Z,15.60
2022-07-31T00:57:01.903Z,15.50
2022-07-31T00:59:29.901Z,15.60
2022-07-31T01:01:58.398Z,15.50
2022-07-31T01:04:26.343Z,15.30
2022-07-31T01:06:54.677Z,15.30
2022-07-31T01:09:22.481Z,15.40
2022-07-31T01:11:58.665Z,15.40
2022-07-31T01:14:29.883Z,15.30
2022-07-31T01:16:59.902Z,15.30
2022-07-31T01:19:43.689Z,15.20
2022-07-31T01:22:50.923Z,15.20
2022-07-31T01:25:29.187Z,15.20
2022-07-31T01:28:41.460Z,15.20
2022-07-31T01:31:28.084Z,15.20
2022-07-31T01:34:08.844Z,15.10
2022-07-31T01:36:42.086Z,15.10
2022-07-31T01:39:09.369Z,15.10
2022-07-31T01:41:42.188Z,15.00
2022-07-31T01:44:13.778Z,14.90
2022-07-31T01:46:44.874Z,14.90
2022-07-31T01:49:14.736Z,14.90
2022-07-31T01:51:44.945Z,14.90
2022-07-31T01:54:14.223Z,14.90
2022-07-31T01:56:42.221Z,14.90
2022-07-31T01:59:17.084Z,14.90
2022-07-31T02:02:10.172Z,14.90
2022-07-31T02:04:39.177Z,14.80
2022-07-31T02:07:08.344Z,14.80
2022-07-31T02:09:37.100Z,14.80
2022-07-31T02:12:09.895Z,14.70
2022-07-31T02:14:41.339Z,14.60
2022-07-31T02:17:11.675Z,14.50
2022-07-31T02:20:06.343Z,14.60
2022-07-31T02:22:34.899Z,14.60
2022-07-31T02:25:02.891Z,14.50
2022-07-31T02:27:54.586Z,14.60
2022-07-31T02:30:18.989Z,14.60
2022-07-31T02:32:49.533Z,14.70
2022-07-31T02:35:18.408Z,14.70
2022-07-31T02:37:47.459Z,14.60
2022-07-31T02:40:15.170Z,14.60
2022-07-31T02:42:42.668Z,14.60
2022-07-31T02:45:10.947Z,14.60
2022-07-31T02:47:38.502Z,14.50
2022-07-31T02:50:10.955Z,14.60
2022-07-31T02:52:38.904Z,14.60
2022-07-31T02:55:06.461Z,14.50
2022-07-31T02:57:33.499Z,14.50
2022-07-31T03:00:00.887Z,14.50
2022-07-31T03:02:36.823Z,14.50
2022-07-31T03:05:05.817Z,14.40
2022-07-31T03:07:32.946Z,14.50
2022-07-31T03:09:59.895Z,14.30
2022-07-31T03:12:50.411Z,14.40
2022-07-31T03:15:20.293Z,14.40
2022-07-31T03:17:49.271Z,14.40
2022-07-31T03:20:22.859Z,14.40
2022-07-31T03:22:51.057Z,14.40
2022-07-31T03:25:20.236Z,14.40
2022-07-31T03:27:55.474Z,14.40
2022-07-31T03:30:25.435Z,14.40
2022-07-31T03:32:56.651Z,14.40
2022-07-31T03:35:24.963Z,14.40
2022-07-31T03:37:52.614Z,14.30
2022-07-31T03:40:19.581Z,14.30
2022-07-31T03:42:49.004Z,14.40
2022-07-31T03:45:17.556Z,14.30
2022-07-31T03:47:45.253Z,14.30
2022-07-31T03:50:13.058Z,14.20
2022-07-31T03:52:40.195Z,14.20
2022-07-31T03:55:08.934Z,14.20
2022-07-31T03:57:38.030Z,14.20
2022-07-31T04:00:07.326Z,14.20
2022-07-31T04:02:46.373Z,14.20
2022-07-31T04:05:37.565Z,14.20
2022-07-31T04:08:06.464Z,14.20
2022-07-31T04:10:33.704Z,14.30
2022-07-31T04:13:00.767Z,14.30
2022-07-31T04:15:27.834Z,14.30
2022-07-31T04:17:54.918Z,14.30
2022-07-31T04:20:28.069Z,14.30
2022-07-31T04:22:56.064Z,14.30
2022-07-31T04:25:42.954Z,14.30
2022-07-31T04:28:30.327Z,14.40
2022-07-31T04:30:57.504Z,14.40
2022-07-31T04:33:24.500Z,14.50
2022-07-31T04:35:53.100Z,14.40
2022-07-31T04:38:20.806Z,14.50
2022-07-31T04:40:49.424Z,14.60
2022-07-31T04:43:17.109Z,14.60
2022-07-31T04:45:44.792Z,14.70
2022-07-31T04:48:12.227Z,14.70
2022-07-31T04:50:39.795Z,14.70
2022-07-31T04:53:06.841Z,14.90
2022-07-31T04:55:37.992Z,15.00
2022-07-31T04:58:05.300Z,15.00
2022-07-31T05:00:32.481Z,15.10
2022-07-31T05:02:59.903Z,15.20
2022-07-31T05:05:26.903Z,15.30
2022-07-31T05:07:53.971Z,15.40
2022-07-31T05:10:44.131Z,15.40
2022-07-31T05:13:11.124Z,15.60
2022-07-31T05:15:38.240Z,15.80
2022-07-31T05:18:07.710Z,15.80
2022-07-31T05:21:14.838Z,15.80
2022-07-31T05:24:01.296Z,15.90
2022-07-31T05:26:50.209Z,15.90
2022-07-31T05:29:17.192Z,16.00
2022-07-31T05:31:59.790Z,16.10
2022-07-31T05:34:30.472Z,16.20
2022-07-31T05:37:01.520Z,16.20
2022-07-31T05:39:31.096Z,16.30
2022-07-31T05:42:16.896Z,16.30
2022-07-31T05:45:04.585Z,16.50
2022-07-31T05:47:40.710Z,16.60
2022-07-31T05:50:09.938Z,16.80
2022-07-31T05:52:37.238Z,16.90
2022-07-31T05:55:23.159Z,17.10
2022-07-31T05:58:11.528Z,17.20
2022-07-31T06:00:41.322Z,17.40
2022-07-31T06:03:08.653Z,17.40
2022-07-31T06:05:55.157Z,17.50
2022-07-31T06:08:22.934Z,17.60
2022-07-31T06:10:50.667Z,17.60
2022-07-31T06:13:18.531Z,17.80
2022-07-31T06:15:49.279Z,17.90
2022-07-31T06:18:16.827Z,18.10
2022-07-31T06:20:44.056Z,18.20
2022-07-31T06:23:14.592Z,18.30
2022-07-31T06:25:53.529Z,18.40
2022-07-31T06:28:20.734Z,18.30
2022-07-31T06:30:57.214Z,18.40
2022-07-31T06:33:37.560Z,18.40
2022-07-31T06:36:05.388Z,18.40
2022-07-31T06:38:41.044Z,18.30
2022-07-31T06:41:44.635Z,18.40
2022-07-31T06:44:35.594Z,18.50
2022-07-31T06:47:51.459Z,18.50
2022-07-31T06:50:29.975Z,18.60
2022-07-31T06:53:16.564Z,18.70
2022-07-31T06:55:44.627Z,18.80
2022-07-31T06:58:12.073Z,18.90
2022-07-31T07:00:39.067Z,19.00
2022-07-31T07:03:06.022Z,19.00
2022-07-31T07:05:33.070Z,19.20
2022-07-31T07:08:01.483Z,19.30
2022-07-31T07:10:28.706Z,19.50
2022-07-31T07:12:58.459Z,19.40
2022-07-31T07:15:25.965Z,19.60
2022-07-31T07:17:52.948Z,19.70
2022-07-31T07:20:28.460Z,19.80
2022-07-31T07:22:56.021Z,19.90
2022-07-31T07:25:39.244Z,20.00
2022-07-31T07:28:12.157Z,19.90
2022-07-31T07:30:42.650Z,19.90
2022-07-31T07:33:10.953Z,20.10
2022-07-31T07:35:38.655Z,20.10
2022-07-31T07:38:12.595Z,20.30
2022-07-31T07:40:43.276Z,20.40
2022-07-31T07:43:10.341Z,20.50
2022-07-31T07:45:40.005Z,20.50
2022-07-31T07:48:07.729Z,20.80
2022-07-31T07:50:54.949Z,20.90
2022-07-31T07:53:31.012Z,20.90
2022-07-31T07:56:24.583Z,21.10
2022-07-31T07:59:23.794Z,21.20
2022-07-31T08:02:22.968Z,21.30
2022-07-31T08:04:50.162Z,21.30
2022-07-31T08:07:17.203Z,21.50
2022-07-31T08:09:44.288Z,21.50
2022-07-31T08:12:29.886Z,21.60
2022-07-31T08:15:25.975Z,21.60
2022-07-31T08:18:19.304Z,21.70
2022-07-31T08:20:46.500Z,21.80
2022-07-31T08:23:18.224Z,21.80
2022-07-31T08:25:45.599Z,21.90
2022-07-31T08:28:14.022Z,22.00
2022-07-31T08:30:47.090Z,22.20
2022-07-31T08:33:16.505Z,22.30
2022-07-31T08:35:52.755Z,22.40
2022-07-31T08:38:20.976Z,22.40
2022-07-31T08:41:13.865Z,22.50
2022-07-31T08:44:01.409Z,22.50
2022-07-31T08:46:29.512Z,22.70
2022-07-31T08:48:58.137Z,22.90
2022-07-31T08:51:26.308Z,22.90
2022-07-31T08:54:12.159Z,22.90
2022-07-31T08:56:39.614Z,23.00
2022-07-31T08:59:07.889Z,23.10
2022-07-31T09:01:36.652Z,23.20
2022-07-31T09:04:03.873Z,23.30
2022-07-31T09:06:30.876Z,23.40
2022-07-31T09:08:57.977Z,23.50
2022-07-31T09:11:25.004Z,23.60
2022-07-31T09:14:04.129Z,23.60
2022-07-31T09:16:49.194Z,23.60
2022-07-31T09:19:51.892Z,23.80
2022-07-31T09:22:27.185Z,23.80
2022-07-31T09:25:16.308Z,23.80
2022-07-31T09:27:43.654Z,23.90
2022-07-31T09:30:11.196Z,24.00
2022-07-31T09:32:54.071Z,24.10
2022-07-31T09:35:52.773Z,24.20
2022-07-31T09:38:20.699Z,24.30
2022-07-31T09:41:53.534Z,24.30
2022-07-31T09:44:11.043Z,24.30
2022-07-31T09:46:47.144Z,24.50
2022-07-31T09:49:15.068Z,24.60
2022-07-31T09:51:47.062Z,24.70
2022-07-31T09:54:25.155Z,24.80
2022-07-31T09:56:52.463Z,24.80
2022-07-31T09:59:20.585Z,24.90
2022-07-31T10:01:49.364Z,25.00
2022-07-31T10:04:21.540Z,25.10
2022-07-31T10:06:51.639Z,25.20
2022-07-31T10:09:21.017Z,25.30
2022-07-31T10:11:58.593Z,25.30
2022-07-31T10:14:31.024Z,25.40
2022-07-31T10:17:00.996Z,25.40
2022-07-31T10:20:06.398Z,25.50
2022-07-31T10:22:50.002Z,25.50
2022-07-31T10:25:25.613Z,25.60
2022-07-31T10:27:54.204Z,25.80
2022-07-31T10:30:27.375Z,25.80
2022-07-31T10:32:56.708Z,25.80
2022-07-31T10:35:27.487Z,25.90
2022-07-31T10:38:16.915Z,25.90
2022-07-31T10:41:09.969Z,26.00
2022-07-31T10:43:48.094Z,25.90
2022-07-31T10:46:37.267Z,26.00
2022-07-31T10:49:49.184Z,26.10
2022-07-31T10:52:51.814Z,26.20
2022-07-31T10:55:30.139Z,26.20
2022-07-31T10:58:33.161Z,26.30
2022-07-31T11:01:12.068Z,26.30
2022-07-31T11:04:13.768Z,26.40
2022-07-31T11:06:54.416Z,26.60
2022-07-31T11:09:51.199Z,26.70
2022-07-31T11:12:30.493Z,26.70
2022-07-31T11:15:23.137Z,26.70
2022-07-31T11:18:25.244Z,26.70
2022-07-31T11:21:22.758Z,26.70
2022-07-31T11:23:56.125Z,26.70
2022-07-31T11:26:32.827Z,26.70
2022-07-31T11:30:00.740Z,26.70
2022-07-31T11:31:50.382Z,26.90
2022-07-31T11:34:17.383Z,27.00
2022-07-31T11:36:49.341Z,27.00
2022-07-31T11:39:18.531Z,27.20
2022-07-31T11:41:47.422Z,27.20
2022-07-31T11:44:20.924Z,27.30
2022-07-31T11:46:50.367Z,27.30
2022-07-31T11:49:39.196Z,27.30
2022-07-31T11:52:31.244Z,27.30
2022-07-31T11:55:08.777Z,27.20
2022-07-31T11:57:52.515Z,27.20
2022-07-31T12:00:26.438Z,27.30
2022-07-31T12:02:57.433Z,27.50
2022-07-31T12:05:38.098Z,27.50
2022-07-31T12:08:07.699Z,27.50
2022-07-31T12:10:35.325Z,27.50
2022-07-31T12:13:02.826Z,27.50
2022-07-31T12:15:29.992Z,27.70
2022-07-31T12:18:02.313Z,27.80
2022-07-31T12:20:35.908Z,27.90
2022-07-31T12:23:05.957Z,28.00
2022-07-31T12:25:45.716Z,28.00
2022-07-31T12:28:16.764Z,28.00
2022-07-31T12:30:44.977Z,28.00
2022-07-31T12:33:15.167Z,27.80
2022-07-31T12:35:54.951Z,27.90
2022-07-31T12:38:45.290Z,28.00
2022-07-31T12:41:15.132Z,28.10
2022-07-31T12:43:51.298Z,28.20
2022-07-31T12:46:20.628Z,28.20
2022-07-31T12:48:47.776Z,28.20
2022-07-31T12:51:16.922Z,28.30
2022-07-31T12:53:44.380Z,28.40
2022-07-31T12:56:14.343Z,28.50
2022-07-31T12:58:41.586Z,28.40
2022-07-31T13:01:08.564Z,28.50
2022-07-31T13:03:38.934Z,28.70
2022-07-31T13:06:13.900Z,28.60
2022-07-31T13:08:41.062Z,28.60
2022-07-31T13:11:08.121Z,28.60
2022-07-31T13:13:35.151Z,28.40
2022-07-31T13:16:02.149Z,28.30
2022-07-31T13:18:30.165Z,28.20
2022-07-31T13:20:57.307Z,28.00
2022-07-31T13:23:24.542Z,27.90
2022-07-31T13:25:51.568Z,28.00
2022-07-31T13:28:18.547Z,28.00
2022-07-31T13:30:45.880Z,27.90
2022-07-31T13:33:12.845Z,27.60
2022-07-31T13:35:39.960Z,27.60
2022-07-31T13:38:07.260Z,27.60
2022-07-31T13:40:52.793Z,27.60
2022-07-31T13:43:19.820Z,27.70
2022-07-31T13:45:46.801Z,27.90
2022-07-31T13:48:13.846Z,27.90
2022-07-31T13:50:41.545Z,27.90
2022-07-31T13:53:09.576Z,27.80
2022-07-31T13:55:37.613Z,27.80
2022-07-31T13:58:04.640Z,27.80
2022-07-31T14:00:32.256Z,27.70
2022-07-31T14:02:59.600Z,27.40
2022-07-31T14:05:27.655Z,27.40
2022-07-31T14:07:56.359Z,27.40
2022-07-31T14:10:43.973Z,27.40
2022-07-31T14:13:15.806Z,27.60
2022-07-31T14:15:43.322Z,27.70
2022-07-31T14:18:10.355Z,27.70
2022-07-31T14:20:37.552Z,27.70
2022-07-31T14:23:07.895Z,27.70
2022-07-31T14:25:39.373Z,27.70
2022-07-31T14:28:07.735Z,27.60
2022-07-31T14:30:35.143Z,27.50
2022-07-31T14:33:02.348Z,27.50
2022-07-31T14:35:29.538Z,27.40
2022-07-31T14:37:56.571Z,27.40
2022-07-31T14:40:23.708Z,27.30
2022-07-31T14:42:50.745Z,27.30
2022-07-31T14:45:17.859Z,27.30
2022-07-31T14:47:46.570Z,27.50
2022-07-31T14:50:19.228Z,27.60
2022-07-31T14:52:47.585Z,27.60
2022-07-31T14:55:14.631Z,27.50
2022-07-31T14:57:42.022Z,27.50
2022-07-31T15:00:18.411Z,27.40
2022-07-31T15:02:46.063Z,27.30
2022-07-31T15:06:40.847Z,27.20
2022-07-31T15:08:00.598Z,27.10
2022-07-31T15:10:31.560Z,27.00
2022-07-31T15:12:58.579Z,27.00
2022-07-31T15:15:25.712Z,27.00
2022-07-31T15:17:55.852Z,27.00
2022-07-31T15:20:32.824Z,27.10
2022-07-31T15:23:00.588Z,27.10
2022-07-31T15:25:27.697Z,27.10
2022-07-31T15:27:54.852Z,27.00
2022-07-31T15:30:22.737Z,27.00
2022-07-31T15:32:53.556Z,27.10
2022-07-31T15:35:21.260Z,27.10
2022-07-31T15:37:49.995Z,27.00
2022-07-31T15:40:17.962Z,27.00
2022-07-31T15:42:46.556Z,26.90
2022-07-31T15:45:16.356Z,26.80
2022-07-31T15:47:44.320Z,26.80
2022-07-31T15:50:14.021Z,26.80
2022-07-31T15:52:42.036Z,26.90
2022-07-31T15:55:10.226Z,26.70
2022-07-31T15:57:37.758Z,26.60
2022-07-31T16:00:06.925Z,26.60
2022-07-31T16:02:38.147Z,26.60
2022-07-31T16:05:19.825Z,26.60
2022-07-31T16:08:31.638Z,26.70
2022-07-31T16:10:36.869Z,26.70
2022-07-31T16:13:04.215Z,26.60
2022-07-31T16:15:32.126Z,26.40
2022-07-31T16:17:59.193Z,26.50
2022-07-31T16:20:27.213Z,26.50
2022-07-31T16:23:03.751Z,26.40
2022-07-31T16:25:34.490Z,26.20
2022-07-31T16:28:02.878Z,26.20
2022-07-31T16:30:29.854Z,26.20
2022-07-31T16:32:56.870Z,26.30
2022-07-31T16:35:26.322Z,26.30
2022-07-31T16:37:54.259Z,26.20
2022-07-31T16:40:30.648Z,26.10
2022-07-31T16:43:47.234Z,26.10
2022-07-31T16:45:54.906Z,26.00
2022-07-31T16:48:22.368Z,26.00
2022-07-31T16:50:54.436Z,26.00
2022-07-31T16:54:10.912Z,25.90
2022-07-31T16:56:17.012Z,25.60
2022-07-31T16:58:44.387Z,25.60
2022-07-31T17:01:57.725Z,25.70
2022-07-31T17:04:03.452Z,25.70
2022-07-31T17:06:37.251Z,25.50
2022-07-31T17:09:16.289Z,25.50
2022-07-31T17:11:47.294Z,25.50
2022-07-31T17:14:14.632Z,25.60
2022-07-31T17:16:46.795Z,25.50
2022-07-31T17:19:14.869Z,25.50
2022-07-31T17:21:44.445Z,25.40
2022-07-31T17:24:15.838Z,25.20
2022-07-31T17:26:43.808Z,25.10
2022-07-31T17:29:11.623Z,25.20
2022-07-31T17:31:38.674Z,25.10
2022-07-31T17:34:09.338Z,25.10
2022-07-31T17:36:37.166Z,25.10
2022-07-31T17:39:05.470Z,25.00
2022-07-31T17:41:32.941Z,24.90
2022-07-31T17:44:01.170Z,24.80
2022-07-31T17:46:34.614Z,24.70
2022-07-31T17:49:08.482Z,24.70
2022-07-31T17:51:35.735Z,24.70
2022-07-31T17:54:02.937Z,24.70
2022-07-31T17:56:29.908Z,24.70
2022-07-31T17:59:03.879Z,24.60
2022-07-31T18:01:31.205Z,24.40
2022-07-31T18:03:58.256Z,24.40
2022-07-31T18:06:25.382Z,24.40
2022-07-31T18:08:52.450Z,24.20
2022-07-31T18:11:21.462Z,24.00
2022-07-31T18:13:51.846Z,23.80
2022-07-31T18:16:23.339Z,23.70
2022-07-31T18:18:54.291Z,23.60
2022-07-31T18:21:21.807Z,23.60
2022-07-31T18:23:48.758Z,23.60
2022-07-31T18:26:15.801Z,23.60
2022-07-31T18:28:42.881Z,23.50
2022-07-31T18:31:31.510Z,23.20
2022-07-31T18:33:56.982Z,23.00
2022-07-31T18:36:24.027Z,22.90
2022-07-31T18:38:52.218Z,22.80
2022-07-31T18:41:20.665Z,22.80
2022-07-31T18:43:47.901Z,22.70
2022-07-31T18:46:15.230Z,22.70
2022-07-31T18:48:42.227Z,22.70
2022-07-31T18:51:09.465Z,22.40
2022-07-31T18:53:36.444Z,22.20
2022-07-31T18:56:03.683Z,22.20
2022-07-31T18:58:30.943Z,22.20
2022-07-31T19:00:57.941Z,22.00
2022-07-31T19:03:26.424Z,21.90
2022-07-31T19:05:53.619Z,21.80
2022-07-31T19:08:21.319Z,21.80
2022-07-31T19:10:49.723Z,21.60
2022-07-31T19:13:18.831Z,21.50
2022-07-31T19:15:51.588Z,21.50
2022-07-31T19:18:22.754Z,21.50
2022-07-31T19:21:19.123Z,21.40
2022-07-31T19:23:49.285Z,21.30
2022-07-31T19:26:17.469Z,21.30
2022-07-31T19:28:45.098Z,21.20
2022-07-31T19:31:16.139Z,21.10
2022-07-31T19:33:43.293Z,20.90
2022-07-31T19:36:14.439Z,20.90
2022-07-31T19:38:44.570Z,20.80
2022-07-31T19:41:13.224Z,20.80
2022-07-31T19:43:46.581Z,20.90
2022-07-31T19:46:13.745Z,20.80
2022-07-31T19:48:42.960Z,20.70
2022-07-31T19:51:11.155Z,20.50
2022-07-31T19:53:38.565Z,20.50
2022-07-31T19:56:06.608Z,20.60
2022-07-31T19:58:35.226Z,20.50
2022-07-31T20:01:04.768Z,20.50
2022-07-31T20:03:32.816Z,20.40
2022-07-31T20:06:00.051Z,20.30
2022-07-31T20:08:27.091Z,20.10
2022-07-31T20:11:03.689Z,20.00
2022-07-31T20:13:35.046Z,20.10
2022-07-31T20:16:02.245Z,20.20
2022-07-31T20:18:29.913Z,20.30
2022-07-31T20:21:07.320Z,20.30
2022-07-31T20:23:38.259Z,20.30
2022-07-31T20:26:07.406Z,20.20
2022-07-31T20:28:34.799Z,20.20
2022-07-31T20:31:02.254Z,20.30
2022-07-31T20:33:29.389Z,20.30
2022-07-31T20:35:56.613Z,20.30
2022-07-31T20:38:24.509Z,20.20
2022-07-31T20:40:55.277Z,20.30
2022-07-31T20:43:24.148Z,20.20
2022-07-31T20:45:51.638Z,20.30
2022-07-31T20:48:18.716Z,20.30
2022-07-31T20:50:48.086Z,20.30
2022-07-31T20:53:17.682Z,20.20
2022-07-31T20:55:47.548Z,20.30
2022-07-31T20:58:14.654Z,20.30
2022-07-31T21:00:42.277Z,20.20
2022-07-31T21:03:09.374Z,20.10
2022-07-31T21:05:36.442Z,20.10
2022-07-31T21:08:03.511Z,20.10
2022-07-31T21:10:30.599Z,20.20
2022-07-31T21:12:58.275Z,20.20
2022-07-31T21:15:40.816Z,20.20
2022-07-31T21:18:21.215Z,20.20
2022-07-31T21:20:53.262Z,20.20
2022-07-31T21:23:25.560Z,20.20
2022-07-31T21:25:53.240Z,20.00
2022-07-31T21:28:21.559Z,20.00
2022-07-31T21:30:49.646Z,20.00
2022-07-31T21:33:18.527Z,20.00
2022-07-31T21:35:46.942Z,19.90
2022-07-31T21:38:18.028Z,19.90
2022-07-31T21:40:46.585Z,20.00
2022-07-31T21:43:16.023Z,20.00
2022-07-31T21:45:55.783Z,20.00
2022-07-31T21:48:29.706Z,20.00
2022-07-31T21:50:57.156Z,19.90
2022-07-31T21:53:24.742Z,19.90
2022-07-31T21:55:52.183Z,19.80
2022-07-31T21:58:19.356Z,19.80
2022-07-31T22:00:46.835Z,19.80
2022-07-31T22:03:13.953Z,19.90
2022-07-31T22:05:59.411Z,19.70
2022-07-31T22:08:26.438Z,19.80
2022-07-31T22:10:53.825Z,19.80
2022-07-31T22:13:21.226Z,19.70
2022-07-31T22:15:58.106Z,19.80
2022-07-31T22:18:30.181Z,19.80
2022-07-31T22:20:58.569Z,19.70
2022-07-31T22:23:27.635Z,19.70
2022-07-31T22:25:54.981Z,19.70
2022-07-31T22:28:24.126Z,19.70
2022-07-31T22:30:51.980Z,19.60
2022-07-31T22:33:19.925Z,19.50
2022-07-31T22:35:59.565Z,19.50
2022-07-31T22:38:29.384Z,19.50
2022-07-31T22:40:57.206Z,19.50
2022-07-31T22:44:11.415Z,19.50
2022-07-31T22:46:14.687Z,19.40
2022-07-31T22:48:41.766Z,19.40
2022-07-31T22:51:10.620Z,19.40
2022-07-31T22:53:41.182Z,19.30
2022-07-31T22:56:08.119Z,19.30
2022-07-31T22:58:35.458Z,19.30
2022-07-31T23:01:02.448Z,19.30
2022-07-31T23:03:29.531Z,19.20
2022-07-31T23:06:28.045Z,19.10
2022-07-31T23:08:43.432Z,19.20
2022-07-31T23:11:10.385Z,19.20
2022-07-31T23:13:37.383Z,19.20
2022-07-31T23:16:05.890Z,19.10
2022-07-31T23:18:33.026Z,19.20
2022-07-31T23:21:00.232Z,19.00
2022-07-31T23:23:27.194Z,18.90
2022-07-31T23:25:54.164Z,19.00
2022-07-31T23:28:21.140Z,18.90
2022-07-31T23:30:48.118Z,18.90
2022-07-31T23:33:17.182Z,19.00
2022-07-31T23:35:44.392Z,19.00
2022-07-31T23:38:11.529Z,18.90
2022-07-31T23:40:38.866Z,18.90
2022-07-31T23:43:05.925Z,18.90
2022-07-31T23:45:32.915Z,18.80
2022-07-31T23:47:59.910Z,18.90
2022-07-31T23:50:27.148Z,18.70
2022-07-31T23:52:54.186Z,18.70
2022-07-31T23:55:21.564Z,18.60
2022-07-31T23:57:48.651Z,18.50
